Time;durP1;ratioP1;P1;durP2;ratioP2;P2;SDS_P1;SDS_P2;PMS_P1;PMS_P2;Temp;Humidity;BMP_temperature;BMP_pressure;BME280_temperature;BME280_humidity;BME280_pressure;Samples;Min_cycle;Max_cycle;Signal;HPM_P1;HPM_P2
2021/10/02 00:36:08;;;;;;;7.00;3.83;;;12.60;99.90;;;;;;5070704;28;20047;-67
2021/10/02 00:44:51;;;;;;;6.07;3.33;;;12.60;99.90;;;;;;5067655;28;20298;-67
2021/10/02 00:46:53;;;;;;;7.75;3.15;;;12.60;99.90;;;;;;5064988;28;20136;-67
2021/10/02 00:49:20;;;;;;;6.68;3.40;;;12.60;99.90;;;;;;5058390;28;20044;-67
2021/10/02 00:51:48;;;;;;;6.30;3.75;;;12.60;99.90;;;;;;5061597;28;20056;-67
2021/10/02 00:54:15;;;;;;;4.78;3.28;;;12.60;99.90;;;;;;5070020;28;20060;-67
2021/10/02 00:56:42;;;;;;;4.70;3.00;;;12.60;99.90;;;;;;5077043;28;20043;-67
2021/10/02 00:59:10;;;;;;;6.70;3.53;;;12.70;99.90;;;;;;5066838;28;20069;-67
2021/10/02 01:01:50;;;;;;;8.00;3.58;;;12.60;99.90;;;;;;5070159;28;20418;-67
2021/10/02 01:04:44;;;;;;;7.88;3.75;;;12.60;99.90;;;;;;5069860;28;20051;-67
2021/10/02 01:07:32;;;;;;;6.25;3.60;;;12.70;99.90;;;;;;5066269;28;20040;-67
2021/10/02 01:10:18;;;;;;;8.20;3.35;;;12.70;99.90;;;;;;5080277;28;20079;-67
2021/10/02 01:13:24;;;;;;;7.47;3.78;;;12.70;99.90;;;;;;5071694;28;20051;-67
2021/10/02 01:16:13;;;;;;;5.57;3.50;;;12.60;99.90;;;;;;5091135;28;20051;-67
2021/10/02 01:19:01;;;;;;;5.78;3.60;;;12.60;99.90;;;;;;5065347;28;20581;-67
2021/10/02 01:21:47;;;;;;;5.38;3.17;;;12.60;99.90;;;;;;5069986;28;20052;-68
2021/10/02 01:24:14;;;;;;;5.50;3.30;;;12.60;99.90;;;;;;5080307;28;20135;-67
2021/10/02 01:27:02;;;;;;;6.88;3.60;;;12.60;99.90;;;;;;5057763;28;20143;-67
2021/10/02 01:29:36;;;;;;;5.53;3.53;;;12.60;99.90;;;;;;5069697;28;20534;-67
2021/10/02 01:32:15;;;;;;;7.65;3.67;;;12.60;99.90;;;;;;5070851;28;20053;-67
2021/10/02 01:48:16;;;;;;;5.32;3.88;;;12.40;99.90;;;;;;5070787;28;20060;-68
2021/10/02 01:50:45;;;;;;;6.18;3.90;;;12.40;99.90;;;;;;5067546;28;20403;-68
2021/10/02 01:53:15;;;;;;;6.80;4.07;;;12.30;99.90;;;;;;5058910;28;20051;-67
2021/10/02 01:55:42;;;;;;;5.72;3.78;;;12.30;99.90;;;;;;5079616;28;20040;-67
2021/10/02 01:58:13;;;;;;;5.82;3.85;;;12.40;99.90;;;;;;5073954;28;20096;-67
2021/10/02 02:00:45;;;;;;;7.88;3.83;;;12.30;99.90;;;;;;5085254;28;20048;-67
2021/10/02 02:03:16;;;;;;;6.47;3.90;;;12.30;99.90;;;;;;5080650;28;20083;-67
2021/10/02 02:05:46;;;;;;;5.43;3.90;;;12.40;99.90;;;;;;5080766;28;20557;-67
2021/10/02 02:08:18;;;;;;;5.57;3.60;;;12.40;99.90;;;;;;5074017;28;20071;-67
2021/10/02 02:10:45;;;;;;;6.15;3.92;;;12.40;99.90;;;;;;5084456;28;20059;-67
2021/10/02 02:13:15;;;;;;;9.00;4.00;;;12.40;99.90;;;;;;5080932;28;20028;-67
2021/10/02 02:15:45;;;;;;;5.90;3.88;;;12.40;99.90;;;;;;5080264;28;20059;-67
2021/10/02 02:18:15;;;;;;;7.60;4.22;;;12.50;99.90;;;;;;5070323;28;20052;-67
2021/10/02 02:20:57;;;;;;;7.88;3.70;;;12.50;99.90;;;;;;5086810;28;20135;-67
2021/10/02 02:23:25;;;;;;;6.43;3.83;;;12.50;99.90;;;;;;5082889;28;20047;-67
2021/10/02 02:25:55;;;;;;;6.93;3.67;;;12.50;99.90;;;;;;5068300;28;20065;-67
2021/10/02 02:28:23;;;;;;;7.40;4.28;;;12.50;99.90;;;;;;5064823;28;20043;-67
2021/10/02 02:30:52;;;;;;;6.15;4.30;;;12.50;99.90;;;;;;5070033;28;20033;-67
2021/10/02 02:33:19;;;;;;;7.75;4.22;;;12.50;99.90;;;;;;5070554;28;20398;-67
2021/10/02 02:35:47;;;;;;;6.68;4.32;;;12.50;99.90;;;;;;5074758;28;20040;-67
2021/10/02 02:38:15;;;;;;;8.90;3.72;;;12.50;99.90;;;;;;5074521;28;20817;-67
2021/10/02 02:40:42;;;;;;;7.65;4.53;;;12.50;99.90;;;;;;5080198;28;20047;-67
2021/10/02 02:43:10;;;;;;;7.22;3.67;;;12.50;99.90;;;;;;5076793;28;20056;-66
2021/10/02 02:45:41;;;;;;;7.13;4.55;;;12.50;99.90;;;;;;5057486;28;20473;-67
2021/10/02 02:48:31;;;;;;;10.98;4.53;;;12.50;99.90;;;;;;5080339;28;20048;-67
2021/10/02 02:51:05;;;;;;;9.20;4.30;;;12.50;99.90;;;;;;5066465;28;20064;-67
2021/10/02 02:54:00;;;;;;;6.05;3.92;;;12.50;99.90;;;;;;5076141;28;20044;-67
2021/10/02 02:56:38;;;;;;;6.45;3.85;;;12.50;99.90;;;;;;5084422;28;20051;-68
2021/10/02 02:59:15;;;;;;;6.88;3.90;;;12.40;99.90;;;;;;5085183;28;20054;-66
2021/10/02 03:01:43;;;;;;;7.45;3.60;;;12.40;99.90;;;;;;5068273;28;20067;-66
2021/10/02 03:04:15;;;;;;;6.95;4.38;;;12.30;99.90;;;;;;5067556;28;20388;-66
2021/10/02 03:06:45;;;;;;;7.23;4.20;;;12.30;99.90;;;;;;5070027;28;20435;-66
2021/10/02 03:09:14;;;;;;;5.85;3.75;;;12.20;99.90;;;;;;5070620;28;20037;-68
2021/10/02 03:11:45;;;;;;;5.43;3.88;;;12.20;99.90;;;;;;5072469;28;20040;-67
2021/10/02 03:14:18;;;;;;;7.07;4.13;;;12.20;99.90;;;;;;5081547;28;20047;-67
2021/10/02 03:16:51;;;;;;;5.60;3.95;;;12.10;99.90;;;;;;5081634;28;20082;-66
2021/10/02 03:19:20;;;;;;;6.07;4.10;;;12.10;99.90;;;;;;5082867;28;20065;-66
2021/10/02 03:21:51;;;;;;;13.77;4.15;;;12.10;99.90;;;;;;5079847;28;20064;-66
2021/10/02 03:24:20;;;;;;;5.82;3.90;;;12.20;99.90;;;;;;5075756;28;20055;-66
2021/10/02 03:26:50;;;;;;;7.97;4.18;;;12.20;99.90;;;;;;5079758;28;20040;-66
2021/10/02 03:29:19;;;;;;;6.15;4.10;;;12.20;99.90;;;;;;5079730;28;20482;-66
2021/10/02 03:31:47;;;;;;;6.95;4.50;;;12.20;99.90;;;;;;5080778;28;20514;-66
2021/10/02 03:34:14;;;;;;;7.30;4.50;;;12.20;99.90;;;;;;5065961;28;20490;-66
2021/10/02 03:36:42;;;;;;;5.82;3.80;;;12.30;99.90;;;;;;5081023;28;20443;-66
2021/10/02 03:39:09;;;;;;;7.15;4.53;;;12.20;99.90;;;;;;5081181;28;20135;-68
2021/10/02 03:41:36;;;;;;;6.25;3.95;;;12.30;99.90;;;;;;5079376;28;20051;-66
2021/10/02 03:44:04;;;;;;;5.35;4.00;;;12.30;99.90;;;;;;5084906;28;20036;-66
2021/10/02 03:46:31;;;;;;;5.80;4.07;;;12.30;99.90;;;;;;5086006;28;20044;-66
2021/10/02 03:49:04;;;;;;;7.70;4.77;;;12.30;99.90;;;;;;5066887;28;20085;-66
2021/10/02 03:51:31;;;;;;;6.57;4.35;;;12.30;99.90;;;;;;5071137;28;20511;-66
2021/10/02 03:53:58;;;;;;;6.93;4.35;;;12.30;99.90;;;;;;5072515;28;20037;-66
2021/10/02 03:56:30;;;;;;;6.57;3.97;;;12.30;99.90;;;;;;5078818;28;20036;-66
2021/10/02 03:58:57;;;;;;;6.63;3.97;;;12.40;99.90;;;;;;5066099;28;20579;-68
2021/10/02 04:01:24;;;;;;;6.60;4.50;;;12.30;99.90;;;;;;5085241;28;20560;-68
2021/10/02 04:03:52;;;;;;;7.68;4.68;;;12.30;99.90;;;;;;5087622;28;20060;-67
2021/10/02 04:06:19;;;;;;;9.15;4.05;;;12.30;99.90;;;;;;5084886;28;20036;-66
2021/10/02 04:08:46;;;;;;;6.25;4.25;;;12.30;99.90;;;;;;5087780;28;20097;-66
2021/10/02 04:11:14;;;;;;;7.80;4.65;;;12.30;99.90;;;;;;5079581;28;20478;-66
2021/10/02 04:13:41;;;;;;;6.93;4.55;;;12.40;99.90;;;;;;5052481;28;20235;-66
2021/10/02 04:16:08;;;;;;;7.30;4.63;;;12.40;99.90;;;;;;5071983;28;20047;-66
2021/10/02 04:18:35;;;;;;;7.55;4.65;;;12.30;99.90;;;;;;5085627;28;20127;-66
2021/10/02 04:21:04;;;;;;;9.93;4.70;;;12.30;99.90;;;;;;5069266;28;20457;-66
2021/10/02 04:23:31;;;;;;;8.15;4.35;;;12.30;99.90;;;;;;5083207;28;20068;-66
2021/10/02 04:25:59;;;;;;;6.18;3.92;;;12.30;99.90;;;;;;5066748;28;20045;-66
2021/10/02 04:28:26;;;;;;;6.68;4.07;;;12.30;99.90;;;;;;5060817;28;20043;-66
2021/10/02 04:30:53;;;;;;;6.28;3.90;;;12.30;99.90;;;;;;5057953;28;20041;-66
2021/10/02 04:33:21;;;;;;;14.00;4.35;;;12.20;99.90;;;;;;5069750;28;20552;-66
2021/10/02 04:35:48;;;;;;;7.32;4.25;;;12.10;99.90;;;;;;5078444;28;20511;-66
2021/10/02 04:38:15;;;;;;;8.63;4.40;;;12.10;99.90;;;;;;5068731;28;20051;-67
2021/10/02 04:40:43;;;;;;;7.47;3.95;;;12.10;99.90;;;;;;5081034;28;20402;-67
2021/10/02 04:43:10;;;;;;;5.90;4.20;;;12.00;99.90;;;;;;5083760;28;20050;-67
2021/10/02 04:45:37;;;;;;;6.78;4.18;;;11.90;99.90;;;;;;5078221;28;20055;-67
2021/10/02 04:48:05;;;;;;;7.57;4.20;;;11.90;99.90;;;;;;5073389;28;20043;-67
2021/10/02 04:50:32;;;;;;;8.90;4.47;;;11.90;99.90;;;;;;5054778;28;20530;-67
2021/10/02 04:53:00;;;;;;;6.22;5.00;;;11.80;99.90;;;;;;5070386;28;20036;-67
2021/10/02 04:55:27;;;;;;;9.52;5.88;;;11.70;99.90;;;;;;5072107;28;20070;-67
2021/10/02 04:57:54;;;;;;;7.40;5.28;;;11.70;99.90;;;;;;5076941;28;20393;-67
2021/10/02 05:00:21;;;;;;;8.10;4.40;;;11.60;99.90;;;;;;5074741;28;20109;-67
2021/10/02 05:02:49;;;;;;;9.15;5.55;;;11.60;99.90;;;;;;5059933;28;20052;-67
2021/10/02 05:05:16;;;;;;;8.65;5.63;;;11.60;99.90;;;;;;5078157;28;20273;-67
2021/10/02 05:07:44;;;;;;;9.68;5.03;;;11.60;99.90;;;;;;5069729;28;20441;-67
2021/10/02 05:10:11;;;;;;;9.50;5.07;;;11.60;99.90;;;;;;5073626;28;20050;-67
2021/10/02 05:12:39;;;;;;;6.57;4.95;;;11.70;99.90;;;;;;5068884;28;20538;-67
2021/10/02 05:15:06;;;;;;;7.18;4.32;;;11.70;99.90;;;;;;5077840;28;20050;-67
2021/10/02 05:17:33;;;;;;;8.80;5.88;;;11.80;99.90;;;;;;5072487;28;20052;-67
2021/10/02 05:20:01;;;;;;;10.55;5.78;;;11.80;99.90;;;;;;5081285;28;20036;-67
2021/10/02 05:22:28;;;;;;;9.85;6.60;;;11.80;99.90;;;;;;5080533;28;20051;-67
2021/10/02 05:24:55;;;;;;;8.93;5.15;;;11.90;99.90;;;;;;5078818;28;20038;-67
2021/10/02 05:27:22;;;;;;;7.25;5.53;;;11.90;99.90;;;;;;5084599;28;20067;-67
2021/10/02 05:29:50;;;;;;;10.75;7.32;;;11.90;99.90;;;;;;5082518;28;20866;-67
2021/10/02 05:32:18;;;;;;;10.57;6.32;;;11.90;99.90;;;;;;5076809;28;20063;-67
2021/10/02 05:34:45;;;;;;;9.10;5.18;;;12.00;99.90;;;;;;5073342;28;20123;-67
2021/10/02 05:37:14;;;;;;;7.15;5.15;;;12.00;99.90;;;;;;5080803;28;20544;-67
2021/10/02 05:39:41;;;;;;;6.78;4.95;;;12.00;99.90;;;;;;5077245;28;20505;-67
2021/10/02 05:42:09;;;;;;;9.30;6.10;;;12.00;99.90;;;;;;5080181;28;20031;-67
2021/10/02 05:44:36;;;;;;;8.60;6.10;;;12.10;99.90;;;;;;5079642;28;20047;-67
2021/10/02 05:47:04;;;;;;;9.77;5.45;;;12.10;99.90;;;;;;5075048;28;20067;-67
2021/10/02 05:49:31;;;;;;;7.18;4.95;;;12.10;99.90;;;;;;5069418;28;20056;-66
2021/10/02 05:51:58;;;;;;;8.13;4.93;;;12.20;99.90;;;;;;5072144;28;20040;-67
2021/10/02 05:54:25;;;;;;;7.70;4.97;;;12.20;99.90;;;;;;5083144;28;20040;-67
2021/10/02 05:56:53;;;;;;;10.10;6.22;;;12.20;99.90;;;;;;5086813;28;20444;-67
2021/10/02 05:59:20;;;;;;;9.73;5.90;;;12.20;99.90;;;;;;5084082;28;20086;-67
2021/10/02 06:01:47;;;;;;;8.98;6.13;;;12.20;99.90;;;;;;5077181;28;20044;-67
2021/10/02 06:04:14;;;;;;;8.10;5.13;;;12.30;99.90;;;;;;5068203;28;20524;-67
2021/10/02 06:06:42;;;;;;;10.50;5.05;;;12.40;99.90;;;;;;5074990;28;20036;-67
2021/10/02 06:09:09;;;;;;;6.90;4.63;;;12.50;99.90;;;;;;5067087;28;20407;-67
2021/10/02 06:11:36;;;;;;;6.97;5.07;;;12.60;99.90;;;;;;5079642;28;20042;-67
2021/10/02 06:14:03;;;;;;;9.35;5.28;;;12.70;99.90;;;;;;5081080;28;20062;-67
2021/10/02 06:16:32;;;;;;;11.23;5.25;;;12.80;99.90;;;;;;5061994;28;20068;-67
2021/10/02 06:18:59;;;;;;;11.80;6.60;;;12.80;99.90;;;;;;5080071;28;20121;-67
2021/10/02 06:21:27;;;;;;;11.80;7.25;;;12.90;99.90;;;;;;5068660;28;20060;-67
2021/10/02 06:23:58;;;;;;;12.52;7.70;;;13.10;99.90;;;;;;5070429;28;20513;-67
2021/10/02 06:26:30;;;;;;;10.63;5.75;;;13.20;99.90;;;;;;5065757;28;20448;-67
2021/10/02 06:28:58;;;;;;;11.35;7.47;;;13.40;99.90;;;;;;5084348;28;20093;-67
2021/10/02 06:31:25;;;;;;;15.32;8.90;;;13.60;99.90;;;;;;5077823;28;20059;-67
2021/10/02 06:33:53;;;;;;;11.85;6.40;;;13.70;99.90;;;;;;5071929;28;20041;-67
2021/10/02 06:36:21;;;;;;;11.68;7.15;;;13.80;99.90;;;;;;5051101;28;20041;-67
2021/10/02 06:38:49;;;;;;;14.50;8.60;;;13.90;99.90;;;;;;5069600;28;20052;-67
2021/10/02 06:41:16;;;;;;;9.95;6.40;;;14.10;99.90;;;;;;5075049;28;20495;-66
2021/10/02 06:43:43;;;;;;;8.15;5.20;;;14.10;99.90;;;;;;5062165;28;20086;-66
2021/10/02 06:46:11;;;;;;;9.88;5.80;;;14.10;99.90;;;;;;5087374;28;20044;-66
2021/10/02 06:48:38;;;;;;;10.07;6.20;;;14.20;99.90;;;;;;5066732;28;20097;-67
2021/10/02 06:51:06;;;;;;;9.10;5.55;;;14.20;99.90;;;;;;5080393;28;20056;-67
2021/10/02 06:53:34;;;;;;;8.20;5.30;;;14.10;99.90;;;;;;5061734;28;20049;-67
2021/10/02 06:56:02;;;;;;;11.85;7.65;;;14.10;99.90;;;;;;5068054;28;20048;-67
2021/10/02 06:58:29;;;;;;;11.82;7.13;;;14.10;99.90;;;;;;5075684;28;20067;-67
2021/10/02 07:00:57;;;;;;;9.10;5.63;;;14.10;99.90;;;;;;5069590;28;20048;-67
2021/10/02 07:03:24;;;;;;;9.60;5.80;;;14.10;99.90;;;;;;5059217;28;20072;-67
2021/10/02 07:05:51;;;;;;;9.35;5.53;;;14.10;99.90;;;;;;5076823;28;20032;-67
2021/10/02 07:08:19;;;;;;;8.55;5.45;;;14.20;99.90;;;;;;5063874;28;20059;-67
2021/10/02 07:10:46;;;;;;;9.25;5.70;;;14.20;99.90;;;;;;5076562;28;20058;-67
2021/10/02 07:13:14;;;;;;;8.73;5.45;;;14.30;99.90;;;;;;5081210;28;20052;-67
2021/10/02 07:15:41;;;;;;;10.82;6.00;;;14.50;99.90;;;;;;5078029;28;20517;-67
2021/10/02 07:18:13;;;;;;;10.73;6.18;;;14.70;99.90;;;;;;5078580;28;20119;-67
2021/10/02 07:20:40;;;;;;;8.98;5.55;;;15.00;99.90;;;;;;5066426;28;20451;-67
2021/10/02 07:23:07;;;;;;;6.78;4.45;;;15.30;99.90;;;;;;5079591;28;20048;-67
2021/10/02 07:25:35;;;;;;;9.63;5.85;;;15.70;99.90;;;;;;5084321;28;20043;-67
2021/10/02 07:28:02;;;;;;;6.82;4.80;;;15.90;99.90;;;;;;5080513;28;20045;-67
2021/10/02 07:30:29;;;;;;;7.40;5.10;;;16.20;99.90;;;;;;5074003;28;20037;-66
2021/10/02 07:32:57;;;;;;;9.27;5.45;;;16.50;99.90;;;;;;5073541;28;20447;-67
2021/10/02 07:35:24;;;;;;;8.68;5.30;;;16.70;99.90;;;;;;5081781;28;20484;-67
2021/10/02 07:37:52;;;;;;;10.32;5.85;;;16.70;99.90;;;;;;5080275;28;20036;-67
2021/10/02 07:40:20;;;;;;;7.70;4.90;;;16.80;99.90;;;;;;5079807;28;20106;-67
2021/10/02 07:42:52;;;;;;;7.05;4.85;;;16.90;99.90;;;;;;5078420;28;20119;-67
2021/10/02 07:45:22;;;;;;;7.90;5.63;;;17.20;99.90;;;;;;5077473;28;20688;-67
2021/10/02 07:47:53;;;;;;;9.35;5.47;;;17.30;99.90;;;;;;5081210;28;20050;-67
2021/10/02 07:50:20;;;;;;;9.93;5.50;;;17.50;99.90;;;;;;5077774;28;20052;-67
2021/10/02 07:52:48;;;;;;;11.07;5.50;;;17.60;99.90;;;;;;5066079;28;20135;-67
2021/10/02 07:55:16;;;;;;;12.23;5.55;;;17.70;99.90;;;;;;5072009;28;21274;-67
2021/10/02 07:57:45;;;;;;;10.10;5.75;;;17.80;99.90;;;;;;5067867;28;20068;-67
2021/10/02 08:00:19;;;;;;;8.10;5.57;;;17.80;99.90;;;;;;5047859;28;20131;-67
2021/10/02 08:02:55;;;;;;;9.68;5.88;;;17.90;99.90;;;;;;5054819;28;20132;-69
2021/10/02 08:05:24;;;;;;;9.70;5.30;;;18.00;99.90;;;;;;5038547;28;20062;-68
2021/10/02 08:07:51;;;;;;;8.13;5.50;;;17.90;99.90;;;;;;5056670;28;20041;-67
2021/10/02 08:10:24;;;;;;;7.78;5.22;;;18.00;99.90;;;;;;5080204;28;20051;-67
2021/10/02 08:12:52;;;;;;;9.65;5.25;;;17.90;99.90;;;;;;5073114;28;20036;-67
2021/10/02 08:15:21;;;;;;;10.93;4.90;;;17.90;99.90;;;;;;5080202;28;20040;-68
2021/10/02 08:17:50;;;;;;;9.18;5.40;;;17.90;99.90;;;;;;5056478;28;20052;-67
2021/10/02 08:20:18;;;;;;;7.90;5.07;;;17.80;99.90;;;;;;5077112;28;20118;-68
2021/10/02 08:22:48;;;;;;;8.57;5.18;;;17.90;99.90;;;;;;5078374;28;20064;-67
2021/10/02 08:25:17;;;;;;;9.55;6.10;;;17.90;99.90;;;;;;5082668;28;20391;-67
2021/10/02 08:27:46;;;;;;;11.38;5.80;;;18.00;99.90;;;;;;5079709;28;20047;-67
2021/10/02 08:30:17;;;;;;;8.60;5.40;;;18.00;99.90;;;;;;5081230;28;20035;-67
2021/10/02 08:32:45;;;;;;;10.23;5.93;;;18.20;99.90;;;;;;5062441;28;20049;-67
2021/10/02 08:35:13;;;;;;;7.00;4.72;;;18.20;99.90;;;;;;5078936;28;20704;-66
2021/10/02 08:37:41;;;;;;;8.57;4.93;;;18.30;99.90;;;;;;5080884;28;20127;-66
2021/10/02 08:40:13;;;;;;;7.05;4.28;;;18.50;99.90;;;;;;5078959;28;20078;-66
2021/10/02 08:42:41;;;;;;;7.07;4.63;;;18.70;99.90;;;;;;5080412;28;20047;-66
2021/10/02 08:45:10;;;;;;;6.65;4.40;;;18.90;99.90;;;;;;5083466;28;20147;-67
2021/10/02 08:47:41;;;;;;;8.77;4.72;;;19.00;99.90;;;;;;5083202;28;20050;-67
2021/10/02 08:50:11;;;;;;;9.05;4.47;;;18.90;99.90;;;;;;5081667;28;20044;-67
2021/10/02 08:52:39;;;;;;;6.95;4.15;;;18.90;99.90;;;;;;5074289;28;20040;-67
2021/10/02 08:55:08;;;;;;;6.53;3.97;;;19.00;99.90;;;;;;5071480;28;20040;-67
2021/10/02 08:57:37;;;;;;;7.63;3.75;;;18.90;99.90;;;;;;5071323;28;20040;-67
2021/10/02 09:00:08;;;;;;;6.88;3.63;;;19.00;99.90;;;;;;5077783;28;20040;-67
2021/10/02 09:02:35;;;;;;;6.50;3.65;;;19.00;99.90;;;;;;5052292;28;20360;-67
2021/10/02 09:05:06;;;;;;;7.03;3.25;;;19.00;99.90;;;;;;5065455;28;20099;-67
2021/10/02 09:07:34;;;;;;;5.53;3.70;;;19.10;99.90;;;;;;5077514;28;20052;-67
2021/10/02 09:10:03;;;;;;;7.85;4.03;;;19.10;99.90;;;;;;5072550;28;20411;-66
2021/10/02 09:12:32;;;;;;;6.47;3.50;;;19.20;99.90;;;;;;5076196;28;20047;-67
2021/10/02 09:15:03;;;;;;;5.82;3.25;;;19.20;99.90;;;;;;5083887;28;20032;-67
2021/10/02 09:17:31;;;;;;;8.38;3.72;;;19.30;99.90;;;;;;5068408;28;20103;-67
2021/10/02 09:20:00;;;;;;;7.32;3.10;;;19.50;99.90;;;;;;5083988;28;20044;-67
2021/10/02 09:22:27;;;;;;;6.25;3.38;;;19.60;99.90;;;;;;5061735;28;20494;-66
2021/10/02 09:24:59;;;;;;;9.48;3.50;;;19.80;99.90;;;;;;5068360;28;20102;-67
2021/10/02 09:27:29;;;;;;;7.75;3.20;;;19.90;99.90;;;;;;5069216;28;20044;-67
2021/10/02 09:29:59;;;;;;;7.13;3.20;;;20.00;99.90;;;;;;5076312;28;20601;-67
2021/10/02 09:32:29;;;;;;;6.38;3.33;;;20.10;99.90;;;;;;5085818;28;20044;-67
2021/10/02 09:35:03;;;;;;;6.53;3.00;;;20.30;99.90;;;;;;5082373;28;20041;-67
2021/10/02 09:37:38;;;;;;;7.80;3.53;;;20.40;99.90;;;;;;5078033;28;20477;-67
2021/10/02 09:40:22;;;;;;;8.07;3.05;;;20.40;99.90;;;;;;5081069;28;20098;-66
2021/10/02 09:42:53;;;;;;;6.30;2.92;;;20.60;99.90;;;;;;5085778;28;20047;-66
2021/10/02 09:45:41;;;;;;;6.38;3.25;;;20.80;99.90;;;;;;5083513;28;20048;-67
2021/10/02 09:48:14;;;;;;;5.05;2.53;;;20.80;99.90;;;;;;5086102;28;20079;-66
2021/10/02 09:50:47;;;;;;;5.88;2.63;;;21.00;99.90;;;;;;5076689;28;20071;-66
2021/10/02 09:53:17;;;;;;;5.78;3.08;;;21.20;99.90;;;;;;5056513;28;20050;-66
2021/10/02 09:55:48;;;;;;;6.78;3.28;;;21.40;99.90;;;;;;5058362;28;20049;-67
2021/10/02 09:58:28;;;;;;;5.45;2.88;;;21.60;99.90;;;;;;5073899;28;20051;-66
2021/10/02 10:00:56;;;;;;;6.50;3.05;;;21.80;99.90;;;;;;5072575;28;20032;-67
2021/10/02 10:03:24;;;;;;;6.03;3.17;;;21.80;99.90;;;;;;5076181;28;20553;-67
2021/10/02 10:05:53;;;;;;;6.18;2.78;;;21.80;99.90;;;;;;5079220;28;20040;-67
2021/10/02 10:08:26;;;;;;;9.18;3.45;;;21.70;99.90;;;;;;5083425;28;20436;-67
2021/10/02 10:11:11;;;;;;;6.55;3.20;;;21.60;99.90;;;;;;5072312;28;20098;-67
2021/10/02 10:13:39;;;;;;;6.30;3.53;;;21.80;99.90;;;;;;5072061;28;20043;-67
2021/10/02 10:16:10;;;;;;;6.45;3.80;;;22.00;99.90;;;;;;5072429;28;20414;-67
2021/10/02 10:18:38;;;;;;;6.95;3.53;;;22.20;99.90;;;;;;5076479;28;20455;-67
2021/10/02 10:21:08;;;;;;;8.40;4.20;;;22.30;99.90;;;;;;5073401;28;20056;-67
2021/10/02 10:23:37;;;;;;;6.40;4.05;;;22.40;99.90;;;;;;5076404;28;20060;-67
2021/10/02 10:26:08;;;;;;;5.38;3.20;;;22.50;99.90;;;;;;5068802;28;20040;-67
2021/10/02 10:28:37;;;;;;;5.47;3.47;;;22.40;99.90;;;;;;5059464;28;20051;-67
2021/10/02 10:31:22;;;;;;;7.75;3.88;;;22.50;99.90;;;;;;5080129;28;20147;-67
2021/10/02 10:33:55;;;;;;;7.45;3.85;;;22.70;99.90;;;;;;5072926;28;20044;-67
2021/10/02 10:36:26;;;;;;;6.88;3.42;;;22.70;99.90;;;;;;5051140;28;20049;-67
2021/10/02 10:38:53;;;;;;;7.95;3.50;;;22.70;99.90;;;;;;5069449;28;20386;-67
2021/10/02 10:41:24;;;;;;;8.05;3.38;;;23.00;99.90;;;;;;5070353;28;20063;-67
2021/10/02 10:43:51;;;;;;;6.68;3.40;;;23.30;99.90;;;;;;5071540;28;20041;-67
2021/10/02 10:46:22;;;;;;;6.65;3.33;;;23.60;99.90;;;;;;5071521;28;20410;-66
2021/10/02 10:48:50;;;;;;;6.45;3.38;;;23.90;99.90;;;;;;5075704;28;20048;-67
2021/10/02 10:51:19;;;;;;;6.95;3.60;;;24.00;99.90;;;;;;5082524;28;20041;-67
2021/10/02 10:53:50;;;;;;;6.60;4.18;;;24.20;99.90;;;;;;5062629;28;20041;-67
2021/10/02 10:56:43;;;;;;;9.60;4.90;;;24.30;99.90;;;;;;5073333;28;20044;-67
2021/10/02 10:59:18;;;;;;;6.35;3.42;;;24.30;99.90;;;;;;5070090;28;20064;-67
2021/10/02 11:01:48;;;;;;;7.70;3.85;;;23.80;99.90;;;;;;5068031;28;20036;-67
2021/10/02 11:04:35;;;;;;;7.68;3.33;;;23.80;99.90;;;;;;5068990;28;20106;-67
2021/10/02 11:07:04;;;;;;;6.15;3.17;;;23.80;99.90;;;;;;5073634;28;20054;-68
2021/10/02 11:09:41;;;;;;;8.20;3.72;;;23.80;99.90;;;;;;5066786;28;20578;-67
2021/10/02 11:12:14;;;;;;;6.63;3.95;;;24.20;99.90;;;;;;5083655;28;20078;-67
2021/10/02 11:14:47;;;;;;;7.43;3.70;;;24.60;99.90;;;;;;5080059;28;20041;-67
2021/10/02 11:17:27;;;;;;;6.45;3.47;;;24.90;99.90;;;;;;5086712;28;20168;-67
2021/10/02 11:19:55;;;;;;;6.20;3.70;;;25.00;99.90;;;;;;5083620;28;20051;-67
2021/10/02 11:23:09;;;;;;;4.72;2.90;;;25.20;99.90;;;;;;5086828;28;20105;-67
2021/10/02 11:25:36;;;;;;;6.18;3.30;;;25.30;99.90;;;;;;5060741;28;20058;-67
2021/10/02 11:28:22;;;;;;;7.07;4.00;;;25.50;99.90;;;;;;5060611;28;20037;-67
2021/10/02 11:30:53;;;;;;;6.72;3.80;;;25.50;99.90;;;;;;5072569;28;20089;-67
2021/10/02 11:33:46;;;;;;;8.40;3.50;;;25.60;99.90;;;;;;5076953;28;20040;-67
2021/10/02 11:36:29;;;;;;;8.57;4.22;;;25.50;99.90;;;;;;5074778;28;20048;-67
2021/10/02 11:39:12;;;;;;;8.23;3.55;;;25.50;99.90;;;;;;5078848;28;20063;-66
2021/10/02 11:41:49;;;;;;;9.50;3.03;;;25.30;99.90;;;;;;5067722;28;20063;-68
2021/10/02 11:44:21;;;;;;;6.55;3.10;;;25.30;99.90;;;;;;5072728;28;20079;-67
2021/10/02 11:46:54;;;;;;;4.88;3.03;;;25.70;99.90;;;;;;5074671;28;20055;-67
2021/10/02 11:49:22;;;;;;;6.15;3.08;;;25.40;99.90;;;;;;5055709;28;20071;-67
2021/10/02 11:52:11;;;;;;;5.15;2.67;;;25.90;99.90;;;;;;5069059;28;20044;-67
2021/10/02 11:54:40;;;;;;;6.15;3.10;;;26.20;99.90;;;;;;5066934;28;20040;-67
2021/10/02 11:57:14;;;;;;;6.43;2.92;;;26.30;99.90;;;;;;5079631;28;20072;-67
2021/10/02 11:59:45;;;;;;;4.90;3.00;;;26.30;99.90;;;;;;5080997;28;20451;-68
2021/10/02 12:02:13;;;;;;;;;;;26.80;99.90;;;;;;5082971;28;20566;-67
2021/10/02 12:04:41;;;;;;;5.05;3.00;;;26.50;99.90;;;;;;5079406;28;19932;-67
2021/10/02 12:07:09;;;;;;;6.70;3.38;;;26.60;99.90;;;;;;5073566;28;20093;-67
2021/10/02 12:09:36;;;;;;;5.75;2.90;;;26.80;99.90;;;;;;5074253;28;20046;-67
2021/10/02 12:12:04;;;;;;;5.28;2.63;;;27.20;99.90;;;;;;5089039;28;20048;-68
2021/10/02 12:14:31;;;;;;;6.03;3.00;;;27.50;99.90;;;;;;5089273;28;20044;-68
2021/10/02 12:17:03;;;;;;;5.07;2.75;;;27.90;99.90;;;;;;5091204;28;20147;-68
2021/10/02 12:19:31;;;;;;;7.97;3.53;;;28.20;99.90;;;;;;5080794;28;20491;-67
2021/10/02 12:22:07;;;;;;;6.90;3.28;;;28.50;99.90;;;;;;5090411;28;20044;-67
2021/10/02 12:24:38;;;;;;;5.03;2.90;;;28.70;99.90;;;;;;5082308;28;20055;-68
2021/10/02 12:27:20;;;;;;;4.90;2.90;;;28.10;99.90;;;;;;5086923;28;20040;-68
2021/10/02 12:29:51;;;;;;;7.68;4.28;;;28.10;99.90;;;;;;5086803;28;20494;-67
2021/10/02 12:32:23;;;;;;;6.00;3.23;;;28.50;99.90;;;;;;5077311;28;20085;-68
2021/10/02 12:34:53;;;;;;;5.45;3.33;;;28.50;99.50;;;;;;5061423;28;20302;-68
2021/10/02 12:37:30;;;;;;;8.60;3.78;;;29.60;98.60;;;;;;5073554;28;20114;-68
2021/10/02 12:40:00;;;;;;;5.80;3.08;;;30.90;97.30;;;;;;5076757;28;20048;-67
2021/10/02 12:42:48;;;;;;;7.60;3.00;;;31.60;95.20;;;;;;5085453;28;20048;-67
2021/10/02 12:45:21;;;;;;;4.65;2.55;;;31.30;94.50;;;;;;5074221;28;20075;-68
2021/10/02 12:47:51;;;;;;;5.57;3.00;;;32.60;93.00;;;;;;5078200;28;20040;-68
2021/10/02 12:50:22;;;;;;;5.97;3.22;;;33.50;91.30;;;;;;5078731;28;20467;-68
2021/10/02 12:52:52;;;;;;;6.30;3.47;;;34.00;89.40;;;;;;5076112;28;20046;-67
2021/10/02 12:55:20;;;;;;;5.10;3.25;;;33.90;86.00;;;;;;5083140;28;20055;-68
2021/10/02 12:57:48;;;;;;;5.30;2.78;;;33.80;86.10;;;;;;5084633;28;20116;-68
2021/10/02 13:00:18;;;;;;;4.13;2.72;;;34.20;85.60;;;;;;5073460;28;20113;-67
2021/10/02 13:02:47;;;;;;;7.22;2.90;;;35.00;83.30;;;;;;5074075;28;20064;-68
2021/10/02 13:05:19;;;;;;;5.57;3.25;;;35.20;81.80;;;;;;5071898;28;20498;-68
2021/10/02 13:07:56;;;;;;;7.90;3.55;;;35.60;80.80;;;;;;5078894;28;20033;-67
2021/10/02 13:10:35;;;;;;;5.55;3.17;;;34.90;79.10;;;;;;5088853;28;20521;-68
2021/10/02 13:13:08;;;;;;;5.15;2.90;;;34.50;80.40;;;;;;5067656;28;20683;-68
2021/10/02 13:15:42;;;;;;;4.45;3.10;;;35.40;79.30;;;;;;5073502;28;20063;-68
2021/10/02 13:18:14;;;;;;;6.88;3.58;;;35.00;78.70;;;;;;5083058;28;20045;-68
2021/10/02 13:20:42;;;;;;;6.47;3.08;;;34.70;79.20;;;;;;5083090;28;20353;-68
2021/10/02 13:23:18;;;;;;;6.53;3.35;;;36.10;77.60;;;;;;5049943;28;20082;-68
2021/10/02 13:25:52;;;;;;;5.30;3.05;;;36.40;75.50;;;;;;5083870;28;20120;-68
2021/10/02 13:28:31;;;;;;;6.65;3.08;;;37.10;73.70;;;;;;5067310;28;20581;-66
2021/10/02 13:31:16;;;;;;;5.60;2.83;;;37.50;72.50;;;;;;5061796;28;20051;-67
2021/10/02 13:33:47;;;;;;;4.47;2.65;;;37.50;70.90;;;;;;5071600;28;20118;-67
2021/10/02 13:36:24;;;;;;;6.47;3.35;;;37.90;70.60;;;;;;5070202;28;20485;-67
2021/10/02 13:38:51;;;;;;;5.85;3.05;;;38.50;69.40;;;;;;5077686;28;20052;-67
2021/10/02 13:41:18;;;;;;;6.72;3.30;;;38.40;68.30;;;;;;5079294;28;20037;-67
2021/10/02 13:44:01;;;;;;;5.53;3.00;;;38.90;67.00;;;;;;5073205;28;20048;-67
2021/10/02 13:46:28;;;;;;;7.63;3.00;;;38.90;65.30;;;;;;5079094;28;20063;-67
2021/10/02 13:48:57;;;;;;;5.38;3.25;;;39.30;64.60;;;;;;5067768;28;20383;-68
2021/10/02 13:51:25;;;;;;;4.93;2.88;;;39.30;64.40;;;;;;5083727;28;20057;-67
2021/10/02 13:53:53;;;;;;;4.43;3.28;;;39.60;63.40;;;;;;5066429;28;20548;-67
2021/10/02 13:56:21;;;;;;;5.70;3.28;;;39.50;62.70;;;;;;5073624;28;20503;-67
2021/10/02 13:58:48;;;;;;;5.07;3.08;;;39.60;62.40;;;;;;5068310;28;20538;-67